Time;durP1;ratioP1;P1;durP2;ratioP2;P2;SDS_P1;SDS_P2;PMS_P1;PMS_P2;Temp;Humidity;BMP_temperature;BMP_pressure;BME280_temperature;BME280_humidity;BME280_pressure;Samples;Min_cycle;Max_cycle;Signal;HPM_P1;HPM_P2
2024/04/02 00:01:13;;;;;;;3.35;0.40;;;8.40;99.90;;;;;;5033755;28;20022;-82
2024/04/02 00:03:42;;;;;;;1.73;0.60;;;8.40;99.90;;;;;;5014811;28;20556;-82
2024/04/02 00:06:08;;;;;;;1.55;0.30;;;8.30;99.90;;;;;;5037700;28;20392;-82
2024/04/02 00:08:34;;;;;;;1.17;0.30;;;8.30;99.90;;;;;;5053283;28;20035;-81
2024/04/02 00:11:05;;;;;;;1.70;0.35;;;8.30;99.90;;;;;;5010702;28;20076;-82
2024/04/02 00:13:31;;;;;;;1.23;0.30;;;8.20;99.90;;;;;;5033640;28;20057;-82
2024/04/02 00:15:57;;;;;;;2.58;0.40;;;8.20;99.90;;;;;;5034392;28;20025;-82
2024/04/02 00:18:24;;;;;;;2.67;0.68;;;8.10;99.90;;;;;;5030175;28;20041;-82
2024/04/02 00:20:50;;;;;;;0.93;0.30;;;8.10;99.90;;;;;;5035196;28;20025;-83
2024/04/02 00:23:15;;;;;;;3.38;0.52;;;8.00;99.90;;;;;;5031640;28;20480;-82
2024/04/02 00:25:43;;;;;;;4.43;0.32;;;8.00;99.90;;;;;;5038440;28;20118;-82
2024/04/02 00:28:11;;;;;;;0.95;0.30;;;7.90;99.90;;;;;;5043640;28;20471;-82
2024/04/02 00:30:37;;;;;;;1.15;0.30;;;7.90;99.90;;;;;;5033305;28;20036;-82
2024/04/02 00:33:03;;;;;;;1.02;0.30;;;7.90;99.90;;;;;;5032885;28;20029;-83
2024/04/02 00:35:28;;;;;;;1.80;0.40;;;7.90;99.90;;;;;;5034449;28;20025;-83
2024/04/02 00:37:55;;;;;;;1.10;0.45;;;7.90;99.90;;;;;;5034687;28;20436;-83
2024/04/02 00:40:20;;;;;;;3.67;0.40;;;7.90;99.90;;;;;;5041955;28;20057;-82
2024/04/02 00:42:47;;;;;;;1.48;0.30;;;7.90;99.90;;;;;;5035243;28;20057;-84
2024/04/02 00:45:13;;;;;;;1.48;0.30;;;7.90;99.90;;;;;;5037642;28;20033;-83
2024/04/02 00:47:42;;;;;;;2.97;0.40;;;7.90;99.90;;;;;;5033594;28;20139;-82
2024/04/02 00:50:12;;;;;;;1.95;0.40;;;7.80;99.90;;;;;;5032620;28;20021;-83
2024/04/02 00:52:39;;;;;;;1.92;0.55;;;7.80;99.90;;;;;;5030449;28;20038;-82
2024/04/02 00:55:05;;;;;;;3.08;0.50;;;7.80;99.90;;;;;;5045594;28;20100;-81
2024/04/02 00:57:30;;;;;;;3.53;0.40;;;7.80;99.90;;;;;;5032894;28;20133;-82
2024/04/02 00:59:56;;;;;;;1.67;0.50;;;7.80;99.90;;;;;;5023003;28;20030;-82
2024/04/02 01:02:22;;;;;;;1.63;0.50;;;7.80;99.90;;;;;;5036803;28;20047;-84
2024/04/02 01:04:48;;;;;;;1.92;0.40;;;7.80;99.90;;;;;;5033637;28;20362;-84
2024/04/02 01:07:15;;;;;;;1.85;0.50;;;7.70;99.90;;;;;;5037978;28;20026;-86
2024/04/02 01:09:42;;;;;;;1.70;0.40;;;7.70;99.90;;;;;;5044009;28;20037;-83
2024/04/02 01:12:08;;;;;;;3.70;0.50;;;7.70;99.90;;;;;;5036455;28;20082;-83
2024/04/02 01:14:43;;;;;;;1.90;0.60;;;7.70;99.90;;;;;;5031033;28;20037;-86
2024/04/02 01:17:09;;;;;;;2.90;0.40;;;7.70;99.90;;;;;;5034341;28;20029;-86
2024/04/02 01:19:35;;;;;;;1.40;0.40;;;7.60;99.90;;;;;;5016842;28;20029;-84
2024/04/02 01:22:01;;;;;;;2.60;0.40;;;7.60;99.90;;;;;;5040758;28;20021;-84
2024/04/02 01:24:27;;;;;;;1.85;0.40;;;7.60;99.90;;;;;;5041633;28;20028;-84
2024/04/02 01:26:53;;;;;;;2.10;0.60;;;7.60;99.90;;;;;;5039842;28;20087;-83
2024/04/02 01:29:19;;;;;;;2.33;0.40;;;7.60;99.90;;;;;;5041519;28;20420;-83
2024/04/02 01:31:45;;;;;;;4.90;0.70;;;7.60;99.90;;;;;;5026796;28;20104;-82
2024/04/02 01:34:12;;;;;;;2.22;0.47;;;7.50;99.90;;;;;;5034358;28;20116;-82
2024/04/02 01:36:38;;;;;;;2.60;0.50;;;7.50;99.90;;;;;;5030417;28;20064;-83
2024/04/02 01:39:04;;;;;;;3.03;0.40;;;7.50;99.90;;;;;;5037164;28;20044;-83
2024/04/02 01:41:29;;;;;;;1.73;0.60;;;7.50;99.90;;;;;;5033223;28;20014;-83
2024/04/02 01:43:55;;;;;;;2.85;0.50;;;7.50;99.90;;;;;;5031013;28;20104;-85
2024/04/02 01:46:21;;;;;;;1.52;0.47;;;7.40;99.90;;;;;;5034542;28;20132;-84
2024/04/02 01:48:46;;;;;;;2.88;0.57;;;7.40;99.90;;;;;;5037959;28;20037;-83
2024/04/02 01:51:12;;;;;;;2.47;0.45;;;7.40;99.90;;;;;;5018656;28;20092;-86
2024/04/02 01:53:37;;;;;;;2.10;0.60;;;7.40;99.90;;;;;;5034168;28;20036;-86
2024/04/02 01:56:03;;;;;;;2.25;0.50;;;7.40;99.90;;;;;;5032849;28;20116;-86
2024/04/02 01:58:29;;;;;;;2.65;0.50;;;7.40;99.90;;;;;;5037341;28;20050;-84
2024/04/02 02:00:54;;;;;;;2.60;0.50;;;7.30;99.90;;;;;;5042444;28;20031;-85
2024/04/02 02:03:20;;;;;;;2.63;0.47;;;7.30;99.90;;;;;;5028826;28;20473;-84
2024/04/02 02:05:49;;;;;;;2.38;0.60;;;7.20;99.90;;;;;;5024513;28;20143;-83
2024/04/02 02:08:14;;;;;;;3.15;0.60;;;7.20;99.90;;;;;;5032055;28;20032;-85
2024/04/02 02:10:40;;;;;;;2.47;0.40;;;7.20;99.90;;;;;;5042804;28;20397;-86
2024/04/02 02:13:08;;;;;;;3.20;0.85;;;7.20;99.90;;;;;;5036753;28;20036;-84
2024/04/02 02:15:34;;;;;;;3.15;1.50;;;7.20;99.90;;;;;;5023107;28;20079;-85
2024/04/02 02:17:59;;;;;;;1.40;0.50;;;7.10;99.90;;;;;;5034969;28;20061;-80
2024/04/02 02:20:25;;;;;;;6.30;0.55;;;7.10;99.90;;;;;;5051045;28;20436;-81
2024/04/02 02:22:51;;;;;;;1.83;0.50;;;7.10;99.90;;;;;;5026401;28;20029;-82
2024/04/02 02:25:17;;;;;;;2.45;0.40;;;7.00;99.90;;;;;;5025940;28;20025;-81
2024/04/02 02:27:42;;;;;;;1.77;0.50;;;7.00;99.90;;;;;;5031505;28;20022;-81
2024/04/02 02:30:08;;;;;;;2.60;0.50;;;7.00;99.90;;;;;;5049821;28;20029;-81
2024/04/02 02:32:34;;;;;;;1.52;0.40;;;7.00;99.90;;;;;;5039856;28;20040;-81
2024/04/02 02:35:01;;;;;;;2.05;0.40;;;7.00;99.90;;;;;;5032610;28;20385;-81
2024/04/02 02:37:26;;;;;;;1.58;0.50;;;7.00;99.90;;;;;;5040301;28;20048;-82
2024/04/02 02:39:53;;;;;;;1.65;0.50;;;6.90;99.90;;;;;;5030847;28;20025;-83
2024/04/02 02:42:19;;;;;;;1.85;0.70;;;6.90;99.90;;;;;;5033377;28;20053;-82
2024/04/02 02:44:45;;;;;;;2.75;0.50;;;7.00;99.90;;;;;;5042004;28;20060;-83
2024/04/02 02:47:10;;;;;;;1.48;0.63;;;7.00;99.90;;;;;;5031288;28;20038;-82
2024/04/02 02:49:36;;;;;;;3.90;0.77;;;7.00;99.90;;;;;;5026572;28;20033;-81
2024/04/02 02:52:02;;;;;;;4.07;0.88;;;7.10;99.90;;;;;;5037281;28;20473;-80
2024/04/02 02:54:27;;;;;;;5.38;0.65;;;7.10;99.90;;;;;;5032030;28;20022;-82
2024/04/02 02:56:53;;;;;;;1.75;0.55;;;7.10;99.90;;;;;;5029475;28;20085;-82
2024/04/02 02:59:19;;;;;;;3.05;0.70;;;7.20;99.90;;;;;;5020131;28;20374;-81
2024/04/02 03:01:44;;;;;;;2.53;0.52;;;7.10;99.90;;;;;;5040694;28;20025;-81
2024/04/02 03:04:10;;;;;;;2.00;0.60;;;7.20;99.90;;;;;;5033844;28;20049;-81
2024/04/02 03:06:36;;;;;;;2.53;0.63;;;7.20;99.90;;;;;;5033649;28;20097;-81
2024/04/02 03:09:02;;;;;;;2.00;0.75;;;7.20;99.90;;;;;;5030745;28;20112;-82
2024/04/02 03:11:27;;;;;;;4.07;0.50;;;7.20;99.90;;;;;;5037022;28;20561;-81
2024/04/02 03:13:53;;;;;;;2.17;0.88;;;7.30;99.90;;;;;;5033114;28;20397;-83
2024/04/02 03:16:21;;;;;;;3.42;0.60;;;7.30;99.90;;;;;;5040325;28;20104;-82
2024/04/02 03:18:47;;;;;;;2.92;0.60;;;7.30;99.90;;;;;;5021128;28;20369;-82
2024/04/02 03:21:14;;;;;;;2.20;0.57;;;7.30;99.90;;;;;;5033037;28;20025;-80
2024/04/02 03:23:43;;;;;;;3.05;0.60;;;7.30;99.90;;;;;;5016265;28;20036;-82
2024/04/02 03:26:09;;;;;;;2.80;0.70;;;7.30;99.90;;;;;;5035176;28;20033;-82
2024/04/02 03:28:34;;;;;;;1.25;0.60;;;7.40;99.90;;;;;;5030180;28;20393;-82
2024/04/02 03:31:01;;;;;;;2.40;0.52;;;7.40;99.90;;;;;;5034564;28;20026;-82
2024/04/02 03:33:27;;;;;;;1.83;0.57;;;7.40;99.90;;;;;;5033076;28;20115;-82
2024/04/02 03:35:53;;;;;;;1.95;0.50;;;7.40;99.90;;;;;;5029654;28;20033;-82
2024/04/02 03:38:19;;;;;;;3.15;0.50;;;7.40;99.90;;;;;;5028935;28;20034;-83
2024/04/02 03:40:45;;;;;;;6.45;0.93;;;7.40;99.90;;;;;;5040095;28;20033;-82
2024/04/02 03:43:10;;;;;;;4.20;0.93;;;7.40;99.90;;;;;;5037881;28;20029;-81
2024/04/02 03:45:43;;;;;;;4.28;0.52;;;7.40;99.90;;;;;;5029677;28;20029;-81
2024/04/02 03:48:09;;;;;;;2.72;0.50;;;7.40;99.90;;;;;;5038785;28;20037;-82
2024/04/02 03:50:36;;;;;;;4.18;0.70;;;7.40;99.90;;;;;;5039481;28;20033;-82
2024/04/02 03:53:03;;;;;;;4.22;0.50;;;7.40;99.90;;;;;;5039432;28;20038;-81
2024/04/02 03:55:36;;;;;;;4.90;0.57;;;7.30;99.90;;;;;;5018717;28;20440;-81
2024/04/02 03:58:02;;;;;;;4.72;0.70;;;7.30;99.90;;;;;;5040043;28;20056;-82
2024/04/02 04:00:28;;;;;;;3.55;0.55;;;7.40;99.90;;;;;;5037650;28;20082;-82
2024/04/02 04:02:55;;;;;;;2.00;0.50;;;7.40;99.90;;;;;;5017538;28;20033;-82
2024/04/02 04:05:21;;;;;;;6.03;0.50;;;7.40;99.90;;;;;;5034867;28;20021;-81
2024/04/02 04:07:46;;;;;;;1.90;0.63;;;7.40;99.90;;;;;;5038281;28;20438;-81
2024/04/02 04:10:12;;;;;;;2.35;0.57;;;7.40;99.90;;;;;;5034155;28;20033;-82
2024/04/02 04:12:37;;;;;;;3.55;0.55;;;7.40;99.90;;;;;;5031806;28;20038;-82
2024/04/02 04:15:04;;;;;;;3.10;0.60;;;7.40;99.90;;;;;;5034758;28;20499;-81
2024/04/02 04:17:29;;;;;;;1.60;0.70;;;7.40;99.90;;;;;;5030686;28;20065;-81
2024/04/02 04:19:55;;;;;;;5.63;0.65;;;7.30;99.90;;;;;;5034224;28;20065;-81
2024/04/02 04:22:20;;;;;;;3.92;0.50;;;7.40;99.90;;;;;;5041408;28;20473;-81
2024/04/02 04:24:56;;;;;;;2.33;0.55;;;7.30;99.90;;;;;;5033562;28;20488;-80
2024/04/02 04:27:23;;;;;;;4.50;0.85;;;7.30;99.90;;;;;;5032696;28;20432;-81
2024/04/02 04:29:48;;;;;;;4.57;0.73;;;7.30;99.90;;;;;;5026554;28;20022;-81
2024/04/02 04:32:15;;;;;;;4.32;0.60;;;7.40;99.90;;;;;;5023812;28;20030;-80
2024/04/02 04:34:40;;;;;;;3.33;0.50;;;7.40;99.90;;;;;;5044596;28;20472;-80
2024/04/02 04:37:06;;;;;;;3.72;0.75;;;7.40;99.90;;;;;;5031989;28;20030;-80
2024/04/02 04:39:31;;;;;;;3.55;1.00;;;7.50;99.90;;;;;;5031309;28;20106;-81
2024/04/02 04:41:57;;;;;;;2.88;0.60;;;7.50;99.90;;;;;;5026162;28;20030;-80
2024/04/02 04:44:23;;;;;;;5.22;0.90;;;7.50;99.90;;;;;;5036531;28;20036;-82
2024/04/02 04:46:48;;;;;;;1.88;0.70;;;7.50;99.90;;;;;;5032479;28;20032;-81
2024/04/02 04:49:14;;;;;;;2.65;0.65;;;7.50;99.90;;;;;;5032565;28;20049;-82
2024/04/02 04:51:40;;;;;;;6.15;0.60;;;7.40;99.90;;;;;;5025364;28;20033;-82
2024/04/02 04:54:05;;;;;;;4.57;0.50;;;7.40;99.90;;;;;;5025349;28;20435;-81
2024/04/02 04:56:31;;;;;;;3.47;0.70;;;7.30;99.90;;;;;;5026590;28;20043;-79
2024/04/02 04:58:56;;;;;;;1.60;0.60;;;7.40;99.90;;;;;;5029574;28;20095;-80
2024/04/02 05:01:22;;;;;;;3.72;1.27;;;7.30;99.90;;;;;;5005593;28;20032;-80
2024/04/02 05:03:48;;;;;;;2.00;0.73;;;7.30;99.90;;;;;;5033444;28;20560;-80
2024/04/02 05:06:14;;;;;;;2.55;0.57;;;7.30;99.90;;;;;;5033379;28;20025;-81
2024/04/02 05:08:39;;;;;;;2.92;0.70;;;7.20;99.90;;;;;;5031564;28;20028;-79
2024/04/02 05:11:06;;;;;;;4.30;0.70;;;7.20;99.90;;;;;;5034138;28;20061;-79
2024/04/02 05:13:32;;;;;;;2.03;0.60;;;7.30;99.90;;;;;;5042254;28;20029;-80
2024/04/02 05:15:58;;;;;;;3.20;0.77;;;7.30;99.90;;;;;;5050762;28;20037;-80
2024/04/02 05:18:24;;;;;;;3.72;1.13;;;7.40;99.90;;;;;;5038114;28;20088;-80
2024/04/02 05:20:50;;;;;;;6.47;0.70;;;7.30;99.90;;;;;;5013156;28;20025;-80
2024/04/02 05:23:16;;;;;;;5.85;0.63;;;7.40;99.90;;;;;;5021605;28;20075;-81
2024/04/02 05:25:42;;;;;;;7.45;0.52;;;7.40;99.90;;;;;;5010678;28;20064;-81
2024/04/02 05:28:08;;;;;;;4.25;0.70;;;7.40;99.90;;;;;;5034685;28;20062;-81
2024/04/02 05:30:35;;;;;;;5.28;0.73;;;7.40;99.90;;;;;;5031207;28;20414;-81
2024/04/02 05:33:01;;;;;;;4.53;0.77;;;7.40;99.90;;;;;;5022210;28;20033;-81
2024/04/02 05:35:26;;;;;;;4.32;0.60;;;7.50;99.90;;;;;;5035396;28;20104;-81
2024/04/02 05:37:53;;;;;;;9.32;1.85;;;7.50;99.90;;;;;;5031092;28;20572;-81
2024/04/02 05:40:20;;;;;;;4.75;0.77;;;7.60;99.90;;;;;;5034619;28;20025;-82
2024/04/02 05:42:45;;;;;;;3.13;0.70;;;7.60;99.90;;;;;;5027539;28;20040;-82
2024/04/02 05:45:12;;;;;;;3.35;0.77;;;7.60;99.90;;;;;;5031880;28;20037;-82
2024/04/02 05:47:38;;;;;;;3.30;0.80;;;7.60;99.90;;;;;;5024532;28;20073;-81
2024/04/02 05:50:04;;;;;;;3.20;0.88;;;7.70;99.90;;;;;;5025536;28;20029;-81
2024/04/02 05:52:30;;;;;;;3.35;0.65;;;7.70;99.90;;;;;;5011022;28;20455;-81
2024/04/02 05:54:55;;;;;;;7.00;1.25;;;7.70;99.90;;;;;;5044011;28;20136;-82
2024/04/02 05:57:21;;;;;;;8.95;1.50;;;7.70;99.90;;;;;;5037143;28;20068;-83
2024/04/02 05:59:50;;;;;;;4.68;0.68;;;7.80;99.90;;;;;;5028424;28;20091;-83
2024/04/02 06:02:16;;;;;;;4.80;0.80;;;7.80;99.90;;;;;;5034399;28;20261;-82
2024/04/02 06:04:42;;;;;;;4.93;0.80;;;7.80;99.90;;;;;;5038947;28;20180;-82
2024/04/02 06:07:07;;;;;;;3.55;0.80;;;7.90;99.90;;;;;;5029293;28;20100;-82
2024/04/02 06:09:33;;;;;;;4.15;0.68;;;8.00;99.90;;;;;;5035266;28;20033;-83
2024/04/02 06:11:58;;;;;;;4.30;0.80;;;8.00;99.90;;;;;;5030626;28;20027;-83
2024/04/02 06:14:24;;;;;;;4.90;0.73;;;8.10;99.90;;;;;;5032140;28;20029;-82
2024/04/02 06:16:49;;;;;;;6.70;1.30;;;8.20;99.90;;;;;;5033364;28;20026;-81
2024/04/02 06:19:15;;;;;;;3.22;0.80;;;8.40;99.90;;;;;;5036548;28;20133;-80
2024/04/02 06:21:41;;;;;;;6.20;1.10;;;8.50;99.90;;;;;;5025445;28;20037;-82
2024/04/02 06:24:06;;;;;;;4.07;0.70;;;8.60;99.90;;;;;;5035416;28;20049;-81
2024/04/02 06:26:32;;;;;;;5.75;0.90;;;8.70;99.90;;;;;;5032564;28;20022;-81
2024/04/02 06:28:57;;;;;;;7.80;0.90;;;8.80;99.90;;;;;;5024674;28;20062;-80
2024/04/02 06:31:23;;;;;;;7.00;0.90;;;8.90;99.90;;;;;;5029122;28;20029;-81
2024/04/02 06:33:49;;;;;;;4.50;0.82;;;8.90;99.90;;;;;;5030310;28;20029;-80
2024/04/02 06:36:14;;;;;;;10.10;0.85;;;9.00;99.90;;;;;;5034028;28;20036;-79
2024/04/02 06:38:40;;;;;;;19.27;1.77;;;9.00;99.90;;;;;;5035655;28;20072;-83
2024/04/02 06:41:05;;;;;;;4.57;0.82;;;9.10;99.90;;;;;;5041408;28;20029;-80
2024/04/02 06:43:31;;;;;;;4.15;0.68;;;9.20;99.90;;;;;;5035291;28;20030;-80
2024/04/02 06:45:59;;;;;;;5.72;1.15;;;9.20;99.90;;;;;;5042751;28;20070;-80
2024/04/02 06:48:25;;;;;;;5.38;1.05;;;9.30;99.90;;;;;;5043298;28;20026;-81
2024/04/02 06:51:01;;;;;;;7.20;1.00;;;9.30;99.90;;;;;;5042425;28;20044;-80
2024/04/02 06:53:27;;;;;;;6.57;0.90;;;9.30;99.90;;;;;;5037034;28;20049;-80
2024/04/02 06:55:53;;;;;;;8.90;1.30;;;9.40;99.90;;;;;;5030985;28;20025;-80
2024/04/02 06:58:19;;;;;;;9.98;1.05;;;9.50;99.90;;;;;;5043614;28;20052;-79
2024/04/02 07:00:45;;;;;;;4.72;0.95;;;9.50;99.90;;;;;;5044425;28;20177;-79
2024/04/02 07:03:18;;;;;;;9.02;2.05;;;9.50;99.90;;;;;;5030556;28;20037;-80
2024/04/02 07:05:45;;;;;;;5.40;1.10;;;9.60;99.90;;;;;;5047485;28;20026;-81
2024/04/02 07:08:11;;;;;;;7.43;1.00;;;9.60;99.90;;;;;;5040366;28;20025;-81
2024/04/02 07:10:38;;;;;;;11.57;1.45;;;9.70;99.90;;;;;;5042647;28;20029;-80
2024/04/02 07:13:04;;;;;;;9.52;1.63;;;9.70;99.90;;;;;;5031280;28;20017;-79
2024/04/02 07:15:30;;;;;;;8.63;1.30;;;9.80;99.90;;;;;;5036666;28;20446;-79
2024/04/02 07:17:55;;;;;;;7.22;1.20;;;9.80;99.90;;;;;;5047056;28;20041;-80
2024/04/02 07:20:22;;;;;;;6.10;1.05;;;9.90;99.90;;;;;;5035527;28;20091;-80
2024/04/02 07:22:48;;;;;;;10.60;1.30;;;9.90;99.90;;;;;;5018043;28;20033;-79
2024/04/02 07:25:14;;;;;;;8.68;1.50;;;10.00;99.90;;;;;;5009542;28;20022;-79
2024/04/02 07:27:40;;;;;;;7.95;1.30;;;10.00;99.90;;;;;;5039520;28;20412;-81
2024/04/02 07:30:12;;;;;;;8.10;1.23;;;10.00;99.90;;;;;;5026852;28;20037;-81
2024/04/02 07:32:38;;;;;;;10.75;1.40;;;10.10;99.90;;;;;;5026251;28;20028;-78
2024/04/02 07:35:04;;;;;;;9.35;1.40;;;10.20;99.90;;;;;;5032110;28;20033;-81
2024/04/02 07:37:30;;;;;;;7.95;1.52;;;10.20;99.90;;;;;;5033510;28;20489;-80
2024/04/02 07:39:55;;;;;;;7.28;0.90;;;10.20;99.90;;;;;;5035050;28;20051;-80
2024/04/02 07:42:21;;;;;;;12.02;1.48;;;10.30;99.90;;;;;;5038403;28;20492;-80
2024/04/02 07:44:47;;;;;;;11.40;1.38;;;10.40;99.90;;;;;;5042966;28;20100;-79
2024/04/02 07:47:12;;;;;;;10.75;1.00;;;10.40;99.90;;;;;;5019121;28;20010;-80
2024/04/02 07:49:38;;;;;;;9.30;0.93;;;10.40;99.90;;;;;;5047307;28;20103;-79
2024/04/02 07:52:04;;;;;;;9.52;1.00;;;10.50;99.90;;;;;;5020441;28;20040;-81
2024/04/02 07:54:30;;;;;;;8.15;1.08;;;10.50;99.90;;;;;;5007116;28;20026;-81
2024/04/02 07:56:56;;;;;;;11.07;1.60;;;10.50;99.90;;;;;;5025822;28;20052;-80
2024/04/02 07:59:22;;;;;;;7.13;0.98;;;10.50;99.90;;;;;;5026293;28;20042;-81
2024/04/02 08:01:48;;;;;;;8.77;0.93;;;10.60;99.90;;;;;;5026516;28;20021;-80
2024/04/02 08:04:14;;;;;;;8.77;1.05;;;10.60;99.90;;;;;;5015970;28;20065;-80
2024/04/02 08:06:42;;;;;;;10.57;1.48;;;10.60;99.90;;;;;;5046192;28;20557;-80
2024/04/02 08:09:08;;;;;;;10.13;0.90;;;10.60;99.90;;;;;;5031621;28;20064;-81
2024/04/02 08:11:34;;;;;;;7.30;1.05;;;10.50;99.90;;;;;;5039180;28;20032;-80
2024/04/02 08:14:03;;;;;;;11.65;1.08;;;10.50;99.90;;;;;;5053240;28;20381;-80
2024/04/02 08:16:32;;;;;;;11.77;0.95;;;10.50;99.90;;;;;;5041855;28;20029;-81
2024/04/02 08:18:58;;;;;;;7.20;1.02;;;10.60;99.90;;;;;;5040414;28;20068;-80
2024/04/02 08:21:23;;;;;;;10.75;1.00;;;10.60;99.90;;;;;;5044276;28;20563;-81
2024/04/02 08:23:49;;;;;;;5.35;0.65;;;10.70;99.90;;;;;;5050352;28;20112;-81
2024/04/02 08:26:14;;;;;;;5.20;0.93;;;10.80;99.90;;;;;;5044635;28;20033;-81
2024/04/02 08:28:40;;;;;;;7.55;0.75;;;10.80;99.90;;;;;;5038924;28;20029;-81
2024/04/02 08:31:06;;;;;;;12.65;1.85;;;10.80;99.90;;;;;;5035518;28;20079;-81
2024/04/02 08:33:33;;;;;;;6.15;0.68;;;10.90;99.90;;;;;;5044009;28;20096;-81
2024/04/02 08:35:59;;;;;;;6.80;0.57;;;10.80;99.90;;;;;;5029944;28;20029;-81
2024/04/02 08:38:25;;;;;;;11.18;1.13;;;10.90;99.90;;;;;;5036831;28;20041;-81
2024/04/02 08:40:51;;;;;;;10.75;1.23;;;10.90;99.90;;;;;;5018402;28;20500;-81
2024/04/02 08:43:18;;;;;;;12.02;1.02;;;11.00;99.90;;;;;;5021199;28;20642;-82
2024/04/02 08:45:44;;;;;;;10.50;1.35;;;11.00;99.90;;;;;;5026533;28;20042;-79
2024/04/02 08:48:11;;;;;;;8.55;0.93;;;11.00;99.90;;;;;;5024787;28;20855;-81
2024/04/02 08:50:40;;;;;;;8.80;1.33;;;11.10;99.90;;;;;;5018398;28;20037;-81
2024/04/02 08:53:06;;;;;;;6.82;0.80;;;11.20;99.90;;;;;;5016567;28;20026;-82
2024/04/02 08:55:34;;;;;;;7.90;1.20;;;11.30;99.90;;;;;;5013523;28;20030;-80
2024/04/02 08:58:03;;;;;;;11.27;1.00;;;11.40;99.90;;;;;;5035182;28;20451;-81
2024/04/02 09:00:29;;;;;;;5.22;0.90;;;11.50;99.90;;;;;;5037408;28;20473;-81
2024/04/02 09:02:56;;;;;;;10.60;0.50;;;11.50;99.90;;;;;;5040971;28;20392;-81
2024/04/02 09:05:21;;;;;;;7.63;0.85;;;11.50;99.90;;;;;;5014922;28;20021;-80
2024/04/02 09:07:47;;;;;;;8.57;0.90;;;11.50;99.90;;;;;;5037429;28;20037;-82
2024/04/02 09:10:13;;;;;;;13.55;0.80;;;11.50;99.90;;;;;;5041377;28;20032;-81
2024/04/02 09:12:39;;;;;;;14.85;0.70;;;11.50;99.90;;;;;;5031951;28;20017;-82
2024/04/02 09:15:05;;;;;;;9.02;0.80;;;11.50;99.90;;;;;;5023079;28;20029;-83
2024/04/02 09:17:31;;;;;;;6.32;0.70;;;11.60;99.90;;;;;;5038215;28;20588;-82
2024/04/02 09:19:56;;;;;;;12.65;0.90;;;11.70;99.90;;;;;;5034373;28;20112;-83
2024/04/02 09:22:23;;;;;;;8.88;0.65;;;11.80;99.90;;;;;;5031806;28;20112;-82
2024/04/02 09:24:49;;;;;;;14.52;0.98;;;11.80;99.90;;;;;;5032647;28;20493;-82
2024/04/02 09:27:15;;;;;;;10.50;1.13;;;11.90;99.90;;;;;;5031801;28;20449;-82
2024/04/02 09:29:41;;;;;;;7.80;0.90;;;12.10;99.90;;;;;;5030785;28;20048;-81
2024/04/02 09:32:07;;;;;;;10.52;0.60;;;12.30;99.90;;;;;;5035275;28;20474;-80
2024/04/02 09:34:34;;;;;;;7.32;0.60;;;12.30;99.90;;;;;;5032949;28;20026;-80
2024/04/02 09:37:24;;;;;;;6.20;0.77;;;12.40;99.90;;;;;;5033517;28;20029;-81
2024/04/02 09:39:52;;;;;;;6.53;0.50;;;12.50;99.90;;;;;;5038049;28;20440;-81
2024/04/02 09:42:20;;;;;;;3.97;0.45;;;12.50;99.90;;;;;;5032679;28;20082;-81
2024/04/02 09:44:49;;;;;;;6.90;0.52;;;12.60;99.90;;;;;;5031781;28;20025;-81
2024/04/02 09:47:18;;;;;;;7.28;0.70;;;12.50;99.90;;;;;;5028791;28;20087;-81
2024/04/02 09:49:44;;;;;;;3.95;0.45;;;12.50;99.90;;;;;;5027500;28;20099;-81
2024/04/02 09:52:10;;;;;;;6.82;0.57;;;12.60;99.90;;;;;;5024960;28;20034;-82
2024/04/02 09:54:36;;;;;;;10.88;0.60;;;12.70;99.90;;;;;;5019530;28;20056;-82
2024/04/02 09:57:04;;;;;;;5.90;0.60;;;12.80;99.90;;;;;;5028856;28;20510;-82
2024/04/02 09:59:30;;;;;;;6.60;0.60;;;12.80;99.90;;;;;;5031030;28;20033;-81
2024/04/02 10:01:58;;;;;;;5.13;0.68;;;12.80;99.90;;;;;;5029635;28;20025;-80
2024/04/02 10:04:23;;;;;;;6.28;0.50;;;12.80;99.90;;;;;;5030859;28;20389;-82
2024/04/02 10:06:53;;;;;;;5.95;0.40;;;12.90;99.90;;;;;;5032787;28;20026;-78
2024/04/02 10:09:19;;;;;;;5.13;0.80;;;12.90;99.90;;;;;;5032557;28;20029;-80
2024/04/02 10:11:46;;;;;;;9.27;0.47;;;12.70;99.90;;;;;;5037597;28;20366;-82
2024/04/02 10:14:14;;;;;;;3.80;0.50;;;12.60;99.90;;;;;;5032195;28;20026;-80
2024/04/02 10:16:42;;;;;;;5.38;0.55;;;12.40;99.90;;;;;;5033061;28;20069;-80
2024/04/02 10:19:22;;;;;;;3.45;0.40;;;12.30;99.90;;;;;;5042535;28;20037;-80
2024/04/02 10:21:52;;;;;;;5.65;0.47;;;12.20;99.90;;;;;;5041629;28;20078;-80
2024/04/02 10:24:19;;;;;;;6.75;0.50;;;12.20;99.90;;;;;;5013110;28;20940;-81
2024/04/02 10:26:45;;;;;;;5.97;0.70;;;12.00;99.90;;;;;;5030334;28;20105;-83
2024/04/02 10:29:11;;;;;;;9.07;0.73;;;11.90;99.90;;;;;;5030433;28;20314;-81
2024/04/02 10:31:41;;;;;;;6.43;1.45;;;11.80;99.90;;;;;;5015302;28;20111;-81
2024/04/02 10:34:08;;;;;;;5.28;0.75;;;11.70;99.90;;;;;;5009197;28;20018;-82
2024/04/02 10:36:34;;;;;;;7.78;0.60;;;11.70;99.90;;;;;;5013269;28;20041;-81
2024/04/02 10:39:00;;;;;;;7.70;0.73;;;11.70;99.90;;;;;;5032984;28;20113;-81
2024/04/02 10:41:33;;;;;;;7.70;1.10;;;11.60;99.90;;;;;;5033191;28;20066;-82
2024/04/02 10:43:58;;;;;;;5.25;0.50;;;11.60;99.90;;;;;;5025768;28;20116;-82
2024/04/02 10:46:26;;;;;;;5.10;0.60;;;11.60;99.90;;;;;;5016318;28;20079;-81
2024/04/02 10:48:55;;;;;;;5.25;0.60;;;11.60;99.90;;;;;;5042428;28;20491;-83
2024/04/02 10:51:21;;;;;;;5.97;0.80;;;11.60;99.90;;;;;;5034064;28;20099;-81
2024/04/02 10:53:46;;;;;;;4.88;0.75;;;11.50;99.90;;;;;;5042022;28;20033;-80
2024/04/02 10:56:14;;;;;;;5.30;0.80;;;11.50;99.90;;;;;;5019152;28;20028;-82
2024/04/02 10:58:40;;;;;;;6.97;0.60;;;11.50;99.90;;;;;;5016901;28;20092;-81
2024/04/02 11:01:05;;;;;;;3.55;0.80;;;11.50;99.90;;;;;;5012751;28;20549;-82
2024/04/02 11:03:31;;;;;;;9.93;1.08;;;11.50;99.90;;;;;;5044571;28;20029;-82
2024/04/02 11:05:57;;;;;;;4.85;0.60;;;11.70;99.90;;;;;;5041563;28;20424;-81
2024/04/02 11:08:23;;;;;;;7.43;0.60;;;11.70;99.90;;;;;;5029598;28;20076;-81
2024/04/02 11:10:49;;;;;;;5.93;0.70;;;11.70;99.90;;;;;;5028614;28;20958;-81
2024/04/02 11:13:27;;;;;;;7.97;0.77;;;11.70;99.90;;;;;;5034401;28;20116;-81
2024/04/02 11:15:53;;;;;;;4.43;0.60;;;11.70;99.90;;;;;;5030678;28;20037;-82
2024/04/02 11:18:26;;;;;;;4.60;0.60;;;11.60;99.90;;;;;;5032827;28;20033;-81
2024/04/02 11:20:59;;;;;;;3.63;0.50;;;11.50;99.90;;;;;;5028998;28;20084;-81
2024/04/02 11:26:14;;;;;;;6.45;0.47;;;11.40;99.90;;;;;;5036681;28;20072;-81
2024/04/02 11:28:41;;;;;;;4.40;0.70;;;11.30;99.90;;;;;;5030448;28;20034;-81
2024/04/02 11:31:08;;;;;;;5.03;0.45;;;11.30;99.90;;;;;;5022910;28;20037;-81
2024/04/02 11:33:34;;;;;;;3.65;0.40;;;11.30;99.90;;;;;;5013355;28;20033;-81
2024/04/02 11:36:01;;;;;;;2.15;0.50;;;11.30;99.90;;;;;;5039453;28;20040;-82
2024/04/02 11:38:27;;;;;;;5.30;0.60;;;11.50;99.90;;;;;;5036562;28;20065;-81
2024/04/02 11:40:53;;;;;;;5.07;0.65;;;11.70;99.90;;;;;;5013979;28;20517;-82
2024/04/02 11:43:19;;;;;;;2.55;0.50;;;11.90;99.90;;;;;;5016021;28;20091;-82
2024/04/02 11:45:48;;;;;;;4.22;0.50;;;11.90;99.90;;;;;;5028381;28;20104;-83
2024/04/02 11:48:14;;;;;;;3.88;0.60;;;12.10;99.90;;;;;;5026531;28;20034;-83
2024/04/02 11:50:39;;;;;;;3.60;0.60;;;12.10;99.90;;;;;;5030790;28;20339;-80
2024/04/02 11:53:05;;;;;;;6.03;0.68;;;12.10;99.90;;;;;;5033637;28;20077;-80
2024/04/02 11:55:31;;;;;;;3.20;0.50;;;12.00;99.90;;;;;;5028666;28;20033;-79
2024/04/02 12:00:40;;;;;;;3.10;0.60;;;12.00;99.90;;;;;;5014293;28;20121;-79
2024/04/02 12:03:06;;;;;;;6.28;0.50;;;11.90;99.90;;;;;;5000358;28;20530;-80
2024/04/02 12:05:32;;;;;;;7.00;0.50;;;11.80;99.90;;;;;;5011652;28;20030;-80
2024/04/02 12:07:58;;;;;;;6.78;0.60;;;11.70;99.90;;;;;;5014280;28;20219;-79
2024/04/02 12:10:23;;;;;;;3.90;0.52;;;11.80;99.90;;;;;;5009055;28;20042;-80
2024/04/02 12:12:51;;;;;;;7.80;0.63;;;11.80;99.90;;;;;;5019328;28;20048;-80
2024/04/02 12:15:17;;;;;;;4.78;0.50;;;12.00;99.90;;;;;;5015463;28;20049;-78
2024/04/02 12:17:43;;;;;;;4.10;0.50;;;12.00;99.90;;;;;;5011929;28;20034;-79
2024/04/02 12:20:11;;;;;;;6.30;0.50;;;12.00;99.90;;;;;;5015947;28;20030;-80
2024/04/02 12:22:37;;;;;;;6.35;0.63;;;12.00;99.90;;;;;;5010316;28;20493;-80
2024/04/02 12:25:04;;;;;;;6.00;0.40;;;11.90;99.90;;;;;;5007505;28;20041;-81
2024/04/02 12:27:30;;;;;;;6.13;0.68;;;11.90;99.90;;;;;;5011502;28;20033;-80
2024/04/02 12:29:57;;;;;;;4.85;0.43;;;11.90;99.90;;;;;;5014953;28;20037;-79
2024/04/02 12:32:30;;;;;;;2.60;0.40;;;12.00;99.90;;;;;;5015440;28;20022;-79
2024/04/02 12:34:55;;;;;;;8.45;0.60;;;12.00;99.90;;;;;;5016624;28;20469;-82
2024/04/02 12:37:21;;;;;;;2.67;0.60;;;12.00;99.90;;;;;;5007175;28;20105;-79
2024/04/02 12:39:47;;;;;;;3.75;0.60;;;12.00;99.90;;;;;;5018121;28;20057;-80
2024/04/02 12:42:16;;;;;;;6.07;0.68;;;12.00;99.90;;;;;;5011767;28;20097;-80
2024/04/02 12:44:42;;;;;;;7.57;1.20;;;12.10;99.90;;;;;;5005684;28;20060;-79
2024/04/02 12:47:08;;;;;;;2.58;0.50;;;12.30;99.90;;;;;;5003327;28;20100;-79
2024/04/02 12:49:40;;;;;;;3.63;0.50;;;12.60;99.90;;;;;;5006028;28;20029;-78
2024/04/02 12:52:06;;;;;;;10.07;1.55;;;12.70;99.90;;;;;;5009241;28;20030;-80
2024/04/02 12:54:32;;;;;;;5.68;0.82;;;12.90;99.90;;;;;;5003935;28;20033;-78